map of SDM home
SDM - Airport
Location
City:  San Diego, California, United States
Name:Brown Field Municipal Airport
ICAO:KSDM
IATA:SDM
FAA LID:SDM

Details
Type:Airport (Airfield)
Use:Public/Civil, International (customs landing rights)
Latitude:3234'20"N (32.572272)
Longitude:11658'49"W (-116.980160)
Datum:WGS 1984
Elevation:526 ft (160 m)
Variation:11.45E (WMM2015 magnetic declination)
-0.09 annual change
Runways:2
Longest:7972 × 150 ft (2430 × 45.5 m), paved

Time
Time Zone:UTC-8 (DST-7)
Local Time:

Weather
METAR:KSDM 140853Z AUTO 14006KT 10SM CLR 09/M10 A2997 RMK AO2 SLP146 T00891100 58002

Related Locations
Nearby:
Farthest:RRG: 11547 mi / 18584 km
Plaine Corail [Sir Gatan Duval Airport (Plaine Corail Airport)], Rodrigues Island, MU

Find:

   beyond  
but within

Other Information
Maps:
NOTAMs:
Links:
Sources:

  
flag of United States
flag of California
flag of San Diego
  

Airport Diagram

Airport diagram for SDM

Airport diagram PDF

Sectional Chart

Flight Planning
at skyvector.com

Satellite Image

Google Maps Satellite view

 

Copyright © 2004-2017 Karl L. Swartz. All rights reserved.
The Great Circle Mapper name and logo are trademarks of the Great Circle Mapper.
All other trademarks mentioned herein belong to their respective owners.
Please see credits for attibutions and further copyright information.

  Follow gcmap on Facebook Follow gcmap on Twitter Follow gcmap on Google+ GCmap on LinkedIn

hCard Microformat

Geo Microformat